sensor_id;sensor_type;location;lat;lon;timestamp;P1;durP1;ratioP1;P2;durP2;ratioP2
8232;SDS011;4157;48.074;9.952;2022-09-01T00:02:12;18.75;;;16.75;;
8232;SDS011;4157;48.074;9.952;2022-09-01T00:04:42;17.77;;;15.90;;
8232;SDS011;4157;48.074;9.952;2022-09-01T00:07:10;17.38;;;14.65;;
8232;SDS011;4157;48.074;9.952;2022-09-01T00:09:38;19.80;;;17.25;;
8232;SDS011;4157;48.074;9.952;2022-09-01T00:12:07;19.58;;;16.63;;
8232;SDS011;4157;48.074;9.952;2022-09-01T00:14:36;18.02;;;15.38;;
8232;SDS011;4157;48.074;9.952;2022-09-01T00:17:06;22.40;;;17.98;;
8232;SDS011;4157;48.074;9.952;2022-09-01T00:19:33;17.90;;;16.00;;
8232;SDS011;4157;48.074;9.952;2022-09-01T00:22:03;19.77;;;17.67;;
8232;SDS011;4157;48.074;9.952;2022-09-01T00:24:31;20.30;;;17.77;;
8232;SDS011;4157;48.074;9.952;2022-09-01T00:26:59;19.83;;;17.80;;
8232;SDS011;4157;48.074;9.952;2022-09-01T00:29:26;21.40;;;18.85;;
8232;SDS011;4157;48.074;9.952;2022-09-01T00:31:54;21.92;;;18.35;;
8232;SDS011;4157;48.074;9.952;2022-09-01T00:34:22;20.27;;;17.48;;
8232;SDS011;4157;48.074;9.952;2022-09-01T00:36:49;17.80;;;15.90;;
8232;SDS011;4157;48.074;9.952;2022-09-01T00:39:18;18.67;;;16.70;;
8232;SDS011;4157;48.074;9.952;2022-09-01T00:41:46;17.00;;;15.07;;
8232;SDS011;4157;48.074;9.952;2022-09-01T00:44:16;18.77;;;16.42;;
8232;SDS011;4157;48.074;9.952;2022-09-01T00:46:49;19.73;;;16.45;;
8232;SDS011;4157;48.074;9.952;2022-09-01T00:49:18;17.92;;;15.80;;
8232;SDS011;4157;48.074;9.952;2022-09-01T00:51:48;19.95;;;17.45;;
8232;SDS011;4157;48.074;9.952;2022-09-01T00:54:19;19.48;;;16.40;;
8232;SDS011;4157;48.074;9.952;2022-09-01T00:56:47;20.25;;;17.77;;
8232;SDS011;4157;48.074;9.952;2022-09-01T00:59:16;19.77;;;17.67;;
8232;SDS011;4157;48.074;9.952;2022-09-01T01:01:45;16.65;;;14.55;;
8232;SDS011;4157;48.074;9.952;2022-09-01T01:04:12;18.52;;;16.35;;
8232;SDS011;4157;48.074;9.952;2022-09-01T01:06:41;17.92;;;16.02;;
8232;SDS011;4157;48.074;9.952;2022-09-01T01:09:14;20.42;;;17.40;;
8232;SDS011;4157;48.074;9.952;2022-09-01T01:11:43;18.15;;;16.23;;
8232;SDS011;4157;48.074;9.952;2022-09-01T01:14:13;18.33;;;16.30;;
8232;SDS011;4157;48.074;9.952;2022-09-01T01:16:42;16.38;;;14.68;;
8232;SDS011;4157;48.074;9.952;2022-09-01T01:19:12;17.02;;;15.13;;
8232;SDS011;4157;48.074;9.952;2022-09-01T01:22:02;19.10;;;16.65;;
8232;SDS011;4157;48.074;9.952;2022-09-01T01:24:50;17.90;;;16.00;;
8232;SDS011;4157;48.074;9.952;2022-09-01T01:27:18;23.13;;;18.63;;
8232;SDS011;4157;48.074;9.952;2022-09-01T01:29:47;19.98;;;16.60;;
8232;SDS011;4157;48.074;9.952;2022-09-01T01:32:19;19.88;;;17.65;;
8232;SDS011;4157;48.074;9.952;2022-09-01T01:34:47;21.63;;;18.23;;
8232;SDS011;4157;48.074;9.952;2022-09-01T01:37:15;21.42;;;18.65;;
8232;SDS011;4157;48.074;9.952;2022-09-01T01:39:43;20.80;;;18.20;;
8232;SDS011;4157;48.074;9.952;2022-09-01T01:42:15;20.98;;;17.83;;
8232;SDS011;4157;48.074;9.952;2022-09-01T01:44:42;21.40;;;17.70;;
8232;SDS011;4157;48.074;9.952;2022-09-01T01:47:11;21.90;;;18.98;;
8232;SDS011;4157;48.074;9.952;2022-09-01T01:49:42;19.10;;;17.00;;
8232;SDS011;4157;48.074;9.952;2022-09-01T01:52:10;20.58;;;17.90;;
8232;SDS011;4157;48.074;9.952;2022-09-01T01:54:42;20.55;;;18.30;;
8232;SDS011;4157;48.074;9.952;2022-09-01T01:57:11;20.73;;;17.55;;
8232;SDS011;4157;48.074;9.952;2022-09-01T01:59:43;19.33;;;17.23;;
8232;SDS011;4157;48.074;9.952;2022-09-01T02:02:10;20.63;;;18.40;;
8232;SDS011;4157;48.074;9.952;2022-09-01T02:04:38;22.45;;;19.38;;
8232;SDS011;4157;48.074;9.952;2022-09-01T02:07:09;21.45;;;16.33;;
8232;SDS011;4157;48.074;9.952;2022-09-01T02:09:37;20.83;;;17.33;;
8232;SDS011;4157;48.074;9.952;2022-09-01T02:12:08;20.13;;;17.60;;
8232;SDS011;4157;48.074;9.952;2022-09-01T02:14:36;21.80;;;18.65;;
8232;SDS011;4157;48.074;9.952;2022-09-01T02:17:05;21.60;;;18.95;;
8232;SDS011;4157;48.074;9.952;2022-09-01T02:19:34;19.92;;;17.88;;
8232;SDS011;4157;48.074;9.952;2022-09-01T02:22:03;24.48;;;20.60;;
8232;SDS011;4157;48.074;9.952;2022-09-01T02:24:31;21.90;;;19.48;;
8232;SDS011;4157;48.074;9.952;2022-09-01T02:26:58;20.10;;;18.00;;
8232;SDS011;4157;48.074;9.952;2022-09-01T02:29:29;22.83;;;20.23;;
8232;SDS011;4157;48.074;9.952;2022-09-01T02:31:56;24.75;;;21.52;;
8232;SDS011;4157;48.074;9.952;2022-09-01T02:34:25;22.00;;;18.60;;
8232;SDS011;4157;48.074;9.952;2022-09-01T02:36:54;19.92;;;17.77;;
8232;SDS011;4157;48.074;9.952;2022-09-01T02:39:24;25.00;;;21.80;;
8232;SDS011;4157;48.074;9.952;2022-09-01T02:41:52;22.08;;;19.75;;
8232;SDS011;4157;48.074;9.952;2022-09-01T02:44:24;26.55;;;22.55;;
8232;SDS011;4157;48.074;9.952;2022-09-01T02:46:54;25.27;;;21.48;;
8232;SDS011;4157;48.074;9.952;2022-09-01T02:49:23;22.58;;;19.20;;
8232;SDS011;4157;48.074;9.952;2022-09-01T02:51:54;23.77;;;20.20;;
8232;SDS011;4157;48.074;9.952;2022-09-01T02:54:24;21.35;;;18.50;;
8232;SDS011;4157;48.074;9.952;2022-09-01T02:56:52;23.90;;;21.30;;
8232;SDS011;4157;48.074;9.952;2022-09-01T02:59:24;20.80;;;18.30;;
8232;SDS011;4157;48.074;9.952;2022-09-01T03:01:53;23.05;;;20.55;;
8232;SDS011;4157;48.074;9.952;2022-09-01T03:04:21;22.58;;;20.10;;
8232;SDS011;4157;48.074;9.952;2022-09-01T03:06:49;24.30;;;21.50;;
8232;SDS011;4157;48.074;9.952;2022-09-01T03:09:21;21.20;;;18.73;;
8232;SDS011;4157;48.074;9.952;2022-09-01T03:11:49;23.38;;;20.88;;
8232;SDS011;4157;48.074;9.952;2022-09-01T03:14:18;21.92;;;19.63;;
8232;SDS011;4157;48.074;9.952;2022-09-01T03:16:47;24.42;;;21.00;;
8232;SDS011;4157;48.074;9.952;2022-09-01T03:19:14;26.08;;;22.33;;
8232;SDS011;4157;48.074;9.952;2022-09-01T03:21:44;26.10;;;21.13;;
8232;SDS011;4157;48.074;9.952;2022-09-01T03:24:16;21.63;;;18.85;;
8232;SDS011;4157;48.074;9.952;2022-09-01T03:26:46;25.60;;;22.30;;
8232;SDS011;4157;48.074;9.952;2022-09-01T03:29:15;24.42;;;21.95;;
8232;SDS011;4157;48.074;9.952;2022-09-01T03:31:43;24.27;;;21.10;;
8232;SDS011;4157;48.074;9.952;2022-09-01T03:34:11;25.63;;;22.83;;
8232;SDS011;4157;48.074;9.952;2022-09-01T03:36:46;22.80;;;19.83;;
8232;SDS011;4157;48.074;9.952;2022-09-01T03:39:19;26.98;;;22.15;;
8232;SDS011;4157;48.074;9.952;2022-09-01T03:41:48;25.40;;;22.70;;
8232;SDS011;4157;48.074;9.952;2022-09-01T03:44:16;23.75;;;21.08;;
8232;SDS011;4157;48.074;9.952;2022-09-01T03:46:45;23.30;;;20.25;;
8232;SDS011;4157;48.074;9.952;2022-09-01T03:49:13;26.35;;;22.88;;
8232;SDS011;4157;48.074;9.952;2022-09-01T03:51:48;25.17;;;22.45;;
8232;SDS011;4157;48.074;9.952;2022-09-01T03:54:18;25.42;;;22.50;;
8232;SDS011;4157;48.074;9.952;2022-09-01T03:56:50;30.77;;;25.20;;
8232;SDS011;4157;48.074;9.952;2022-09-01T03:59:19;25.85;;;22.52;;
8232;SDS011;4157;48.074;9.952;2022-09-01T04:01:47;26.90;;;23.23;;
8232;SDS011;4157;48.074;9.952;2022-09-01T04:04:15;26.77;;;22.83;;
8232;SDS011;4157;48.074;9.952;2022-09-01T04:06:44;27.08;;;24.15;;
8232;SDS011;4157;48.074;9.952;2022-09-01T04:09:12;29.83;;;24.75;;
8232;SDS011;4157;48.074;9.952;2022-09-01T04:11:43;24.33;;;21.73;;
8232;SDS011;4157;48.074;9.952;2022-09-01T04:14:13;28.33;;;23.50;;
8232;SDS011;4157;48.074;9.952;2022-09-01T04:16:41;28.00;;;23.13;;
8232;SDS011;4157;48.074;9.952;2022-09-01T04:19:27;29.02;;;23.40;;
8232;SDS011;4157;48.074;9.952;2022-09-01T04:21:56;27.35;;;21.63;;
8232;SDS011;4157;48.074;9.952;2022-09-01T04:24:27;27.05;;;22.85;;
8232;SDS011;4157;48.074;9.952;2022-09-01T04:26:57;26.83;;;24.02;;
8232;SDS011;4157;48.074;9.952;2022-09-01T04:29:28;23.58;;;21.08;;
8232;SDS011;4157;48.074;9.952;2022-09-01T04:31:58;25.30;;;22.60;;
8232;SDS011;4157;48.074;9.952;2022-09-01T04:34:29;26.80;;;22.27;;
8232;SDS011;4157;48.074;9.952;2022-09-01T04:37:02;27.98;;;23.38;;
8232;SDS011;4157;48.074;9.952;2022-09-01T04:39:30;26.65;;;21.45;;
8232;SDS011;4157;48.074;9.952;2022-09-01T04:41:58;25.33;;;22.48;;
8232;SDS011;4157;48.074;9.952;2022-09-01T04:44:32;24.77;;;22.13;;
8232;SDS011;4157;48.074;9.952;2022-09-01T04:47:00;28.98;;;24.70;;
8232;SDS011;4157;48.074;9.952;2022-09-01T04:49:28;26.42;;;22.67;;
8232;SDS011;4157;48.074;9.952;2022-09-01T04:51:58;25.67;;;22.83;;
8232;SDS011;4157;48.074;9.952;2022-09-01T04:54:26;23.35;;;20.35;;
8232;SDS011;4157;48.074;9.952;2022-09-01T04:56:57;26.52;;;22.42;;
8232;SDS011;4157;48.074;9.952;2022-09-01T04:59:27;24.23;;;21.13;;
8232;SDS011;4157;48.074;9.952;2022-09-01T05:02:00;25.58;;;22.88;;
8232;SDS011;4157;48.074;9.952;2022-09-01T05:04:32;27.08;;;22.98;;
8232;SDS011;4157;48.074;9.952;2022-09-01T05:07:01;28.30;;;22.77;;
8232;SDS011;4157;48.074;9.952;2022-09-01T05:09:35;26.67;;;23.88;;
8232;SDS011;4157;48.074;9.952;2022-09-01T05:12:15;25.77;;;22.52;;
8232;SDS011;4157;48.074;9.952;2022-09-01T05:14:46;25.80;;;20.67;;
8232;SDS011;4157;48.074;9.952;2022-09-01T05:17:18;23.00;;;19.30;;
8232;SDS011;4157;48.074;9.952;2022-09-01T05:19:47;26.35;;;21.38;;
8232;SDS011;4157;48.074;9.952;2022-09-01T05:22:16;26.50;;;22.23;;
8232;SDS011;4157;48.074;9.952;2022-09-01T05:24:58;24.23;;;20.05;;
8232;SDS011;4157;48.074;9.952;2022-09-01T05:27:39;21.20;;;18.90;;
8232;SDS011;4157;48.074;9.952;2022-09-01T05:30:07;21.58;;;19.17;;
8232;SDS011;4157;48.074;9.952;2022-09-01T05:32:36;21.38;;;18.70;;
8232;SDS011;4157;48.074;9.952;2022-09-01T05:35:05;21.70;;;18.50;;
8232;SDS011;4157;48.074;9.952;2022-09-01T05:37:34;21.25;;;17.77;;
8232;SDS011;4157;48.074;9.952;2022-09-01T05:40:03;22.10;;;17.92;;
8232;SDS011;4157;48.074;9.952;2022-09-01T05:42:31;20.88;;;18.75;;
8232;SDS011;4157;48.074;9.952;2022-09-01T05:44:59;18.25;;;16.25;;
8232;SDS011;4157;48.074;9.952;2022-09-01T05:47:28;22.25;;;18.10;;
8232;SDS011;4157;48.074;9.952;2022-09-01T05:50:02;21.00;;;18.73;;
8232;SDS011;4157;48.074;9.952;2022-09-01T05:52:30;22.42;;;18.92;;
8232;SDS011;4157;48.074;9.952;2022-09-01T05:54:59;18.58;;;16.63;;
8232;SDS011;4157;48.074;9.952;2022-09-01T05:57:28;19.17;;;17.05;;
8232;SDS011;4157;48.074;9.952;2022-09-01T06:00:00;19.92;;;17.45;;
8232;SDS011;4157;48.074;9.952;2022-09-01T06:02:38;22.75;;;19.55;;
8232;SDS011;4157;48.074;9.952;2022-09-01T06:05:10;19.20;;;17.10;;
8232;SDS011;4157;48.074;9.952;2022-09-01T06:07:40;20.58;;;18.20;;
8232;SDS011;4157;48.074;9.952;2022-09-01T06:10:10;21.23;;;18.05;;
8232;SDS011;4157;48.074;9.952;2022-09-01T06:12:39;21.42;;;18.70;;
8232;SDS011;4157;48.074;9.952;2022-09-01T06:15:10;22.85;;;19.45;;
8232;SDS011;4157;48.074;9.952;2022-09-01T06:17:41;19.40;;;17.25;;
8232;SDS011;4157;48.074;9.952;2022-09-01T06:20:12;18.77;;;16.30;;
8232;SDS011;4157;48.074;9.952;2022-09-01T06:22:43;20.70;;;17.83;;
8232;SDS011;4157;48.074;9.952;2022-09-01T06:25:12;19.77;;;16.20;;
8232;SDS011;4157;48.074;9.952;2022-09-01T06:27:43;18.65;;;16.65;;
8232;SDS011;4157;48.074;9.952;2022-09-01T06:30:13;21.42;;;16.17;;
8232;SDS011;4157;48.074;9.952;2022-09-01T06:32:50;19.40;;;15.95;;
8232;SDS011;4157;48.074;9.952;2022-09-01T06:35:19;17.88;;;15.57;;
8232;SDS011;4157;48.074;9.952;2022-09-01T06:37:49;17.88;;;15.52;;
8232;SDS011;4157;48.074;9.952;2022-09-01T06:40:35;18.13;;;15.30;;
8232;SDS011;4157;48.074;9.952;2022-09-01T06:43:07;17.90;;;14.77;;
8232;SDS011;4157;48.074;9.952;2022-09-01T06:45:39;16.25;;;13.65;;
8232;SDS011;4157;48.074;9.952;2022-09-01T06:48:07;14.98;;;12.65;;
8232;SDS011;4157;48.074;9.952;2022-09-01T06:50:42;15.00;;;12.85;;
8232;SDS011;4157;48.074;9.952;2022-09-01T06:53:10;15.02;;;11.63;;
8232;SDS011;4157;48.074;9.952;2022-09-01T06:55:41;14.18;;;12.40;;
8232;SDS011;4157;48.074;9.952;2022-09-01T06:58:11;13.95;;;11.95;;
8232;SDS011;4157;48.074;9.952;2022-09-01T07:00:44;12.48;;;10.85;;
8232;SDS011;4157;48.074;9.952;2022-09-01T07:03:13;13.80;;;11.20;;
8232;SDS011;4157;48.074;9.952;2022-09-01T07:05:59;13.02;;;10.98;;
8232;SDS011;4157;48.074;9.952;2022-09-01T07:08:46;13.45;;;11.38;;
8232;SDS011;4157;48.074;9.952;2022-09-01T07:11:25;11.52;;;10.18;;
8232;SDS011;4157;48.074;9.952;2022-09-01T07:13:54;12.23;;;9.80;;
8232;SDS011;4157;48.074;9.952;2022-09-01T07:16:24;13.77;;;10.68;;
8232;SDS011;4157;48.074;9.952;2022-09-01T07:18:52;12.57;;;10.55;;
8232;SDS011;4157;48.074;9.952;2022-09-01T07:21:23;11.68;;;10.15;;
8232;SDS011;4157;48.074;9.952;2022-09-01T07:23:52;13.48;;;10.30;;
8232;SDS011;4157;48.074;9.952;2022-09-01T07:26:19;12.00;;;9.80;;
8232;SDS011;4157;48.074;9.952;2022-09-01T07:28:50;11.27;;;9.60;;
8232;SDS011;4157;48.074;9.952;2022-09-01T07:31:19;11.55;;;10.18;;
8232;SDS011;4157;48.074;9.952;2022-09-01T07:33:48;11.35;;;10.15;;
8232;SDS011;4157;48.074;9.952;2022-09-01T07:36:16;12.77;;;9.73;;
8232;SDS011;4157;48.074;9.952;2022-09-01T07:38:46;12.25;;;10.13;;
8232;SDS011;4157;48.074;9.952;2022-09-01T07:44:15;13.38;;;10.23;;
8232;SDS011;4157;48.074;9.952;2022-09-01T07:47:18;11.60;;;9.23;;
8232;SDS011;4157;48.074;9.952;2022-09-01T07:49:47;12.48;;;10.23;;
8232;SDS011;4157;48.074;9.952;2022-09-01T07:52:15;12.32;;;9.45;;
8232;SDS011;4157;48.074;9.952;2022-09-01T07:54:45;11.85;;;9.82;;
8232;SDS011;4157;48.074;9.952;2022-09-01T07:57:13;11.52;;;9.93;;
8232;SDS011;4157;48.074;9.952;2022-09-01T07:59:41;11.93;;;10.00;;
8232;SDS011;4157;48.074;9.952;2022-09-01T08:02:19;9.85;;;8.30;;
8232;SDS011;4157;48.074;9.952;2022-09-01T08:04:47;10.80;;;9.02;;
8232;SDS011;4157;48.074;9.952;2022-09-01T08:07:16;12.02;;;10.05;;
8232;SDS011;4157;48.074;9.952;2022-09-01T08:09:46;12.07;;;8.98;;
8232;SDS011;4157;48.074;9.952;2022-09-01T08:12:15;9.52;;;8.27;;
8232;SDS011;4157;48.074;9.952;2022-09-01T08:14:46;9.23;;;6.97;;
8232;SDS011;4157;48.074;9.952;2022-09-01T08:17:18;8.98;;;7.30;;
8232;SDS011;4157;48.074;9.952;2022-09-01T08:19:46;9.57;;;7.40;;
8232;SDS011;4157;48.074;9.952;2022-09-01T08:22:21;9.05;;;7.72;;
8232;SDS011;4157;48.074;9.952;2022-09-01T08:24:59;8.70;;;7.13;;
8232;SDS011;4157;48.074;9.952;2022-09-01T08:27:27;10.50;;;8.38;;
8232;SDS011;4157;48.074;9.952;2022-09-01T08:29:55;8.75;;;7.25;;
8232;SDS011;4157;48.074;9.952;2022-09-01T08:32:23;10.80;;;7.70;;
8232;SDS011;4157;48.074;9.952;2022-09-01T08:34:52;10.68;;;7.90;;
8232;SDS011;4157;48.074;9.952;2022-09-01T08:37:21;10.50;;;7.75;;
8232;SDS011;4157;48.074;9.952;2022-09-01T08:39:50;9.57;;;7.57;;
8232;SDS011;4157;48.074;9.952;2022-09-01T08:42:21;8.98;;;7.53;;
8232;SDS011;4157;48.074;9.952;2022-09-01T08:44:54;8.77;;;6.95;;
8232;SDS011;4157;48.074;9.952;2022-09-01T08:47:25;9.10;;;7.22;;
8232;SDS011;4157;48.074;9.952;2022-09-01T08:49:53;10.30;;;7.80;;
8232;SDS011;4157;48.074;9.952;2022-09-01T08:52:23;9.80;;;7.75;;
8232;SDS011;4157;48.074;9.952;2022-09-01T08:54:55;10.70;;;7.30;;
8232;SDS011;4157;48.074;9.952;2022-09-01T08:57:28;9.25;;;7.15;;
8232;SDS011;4157;48.074;9.952;2022-09-01T09:00:17;10.50;;;6.75;;
8232;SDS011;4157;48.074;9.952;2022-09-01T09:02:53;9.70;;;7.45;;
8232;SDS011;4157;48.074;9.952;2022-09-01T09:05:30;8.73;;;6.90;;
8232;SDS011;4157;48.074;9.952;2022-09-01T09:08:09;8.27;;;6.60;;
8232;SDS011;4157;48.074;9.952;2022-09-01T09:10:45;9.60;;;6.60;;
8232;SDS011;4157;48.074;9.952;2022-09-01T09:13:20;9.27;;;6.78;;
8232;SDS011;4157;48.074;9.952;2022-09-01T09:15:50;9.57;;;5.82;;
8232;SDS011;4157;48.074;9.952;2022-09-01T09:18:19;8.80;;;6.30;;
8232;SDS011;4157;48.074;9.952;2022-09-01T09:20:52;8.25;;;6.22;;
8232;SDS011;4157;48.074;9.952;2022-09-01T09:23:22;8.93;;;5.97;;
8232;SDS011;4157;48.074;9.952;2022-09-01T09:25:51;6.47;;;5.40;;
8232;SDS011;4157;48.074;9.952;2022-09-01T09:28:20;7.70;;;6.15;;
8232;SDS011;4157;48.074;9.952;2022-09-01T09:30:47;7.60;;;5.75;;
8232;SDS011;4157;48.074;9.952;2022-09-01T09:36:08;8.88;;;6.65;;
8232;SDS011;4157;48.074;9.952;2022-09-01T09:38:41;7.88;;;5.75;;
8232;SDS011;4157;48.074;9.952;2022-09-01T09:41:13;7.07;;;5.32;;
8232;SDS011;4157;48.074;9.952;2022-09-01T09:43:44;8.90;;;5.70;;
8232;SDS011;4157;48.074;9.952;2022-09-01T09:46:21;9.75;;;5.55;;
8232;SDS011;4157;48.074;9.952;2022-09-01T09:48:49;9.10;;;5.15;;
8232;SDS011;4157;48.074;9.952;2022-09-01T09:51:32;9.23;;;5.80;;
8232;SDS011;4157;48.074;9.952;2022-09-01T09:54:10;6.85;;;5.13;;
8232;SDS011;4157;48.074;9.952;2022-09-01T09:56:39;8.00;;;6.07;;
8232;SDS011;4157;48.074;9.952;2022-09-01T09:59:17;7.55;;;5.70;;
8232;SDS011;4157;48.074;9.952;2022-09-01T10:01:46;9.75;;;5.90;;
8232;SDS011;4157;48.074;9.952;2022-09-01T10:04:30;8.23;;;5.72;;
8232;SDS011;4157;48.074;9.952;2022-09-01T10:06:58;9.27;;;5.80;;
8232;SDS011;4157;48.074;9.952;2022-09-01T10:09:33;7.18;;;5.72;;
8232;SDS011;4157;48.074;9.952;2022-09-01T10:12:01;7.43;;;5.28;;
8232;SDS011;4157;48.074;9.952;2022-09-01T10:14:32;9.32;;;5.30;;
8232;SDS011;4157;48.074;9.952;2022-09-01T10:17:02;6.28;;;4.47;;
8232;SDS011;4157;48.074;9.952;2022-09-01T10:19:32;5.82;;;4.38;;
8232;SDS011;4157;48.074;9.952;2022-09-01T10:22:01;7.70;;;4.22;;
8232;SDS011;4157;48.074;9.952;2022-09-01T10:24:30;6.75;;;4.88;;
8232;SDS011;4157;48.074;9.952;2022-09-01T10:26:59;7.03;;;4.90;;
8232;SDS011;4157;48.074;9.952;2022-09-01T10:29:28;7.40;;;4.72;;
8232;SDS011;4157;48.074;9.952;2022-09-01T10:31:59;7.45;;;4.28;;
8232;SDS011;4157;48.074;9.952;2022-09-01T10:34:31;6.03;;;4.13;;
8232;SDS011;4157;48.074;9.952;2022-09-01T10:37:01;6.55;;;4.30;;
8232;SDS011;4157;48.074;9.952;2022-09-01T10:39:29;8.52;;;4.70;;
8232;SDS011;4157;48.074;9.952;2022-09-01T10:41:57;6.53;;;4.80;;
8232;SDS011;4157;48.074;9.952;2022-09-01T10:44:32;5.80;;;4.18;;
8232;SDS011;4157;48.074;9.952;2022-09-01T10:47:02;7.50;;;4.40;;
8232;SDS011;4157;48.074;9.952;2022-09-01T10:55:02;6.97;;;4.20;;
8232;SDS011;4157;48.074;9.952;2022-09-01T10:57:41;6.05;;;3.92;;
8232;SDS011;4157;48.074;9.952;2022-09-01T11:05:59;8.13;;;4.90;;
8232;SDS011;4157;48.074;9.952;2022-09-01T11:08:39;6.60;;;4.53;;
8232;SDS011;4157;48.074;9.952;2022-09-01T11:11:09;5.95;;;4.13;;
8232;SDS011;4157;48.074;9.952;2022-09-01T11:13:43;7.35;;;4.40;;
8232;SDS011;4157;48.074;9.952;2022-09-01T11:16:30;6.05;;;4.30;;
8232;SDS011;4157;48.074;9.952;2022-09-01T11:21:42;7.63;;;5.55;;
8232;SDS011;4157;48.074;9.952;2022-09-01T11:26:57;6.85;;;4.32;;
8232;SDS011;4157;48.074;9.952;2022-09-01T11:32:11;7.07;;;4.30;;
8232;SDS011;4157;48.074;9.952;2022-09-01T11:34:40;5.93;;;4.22;;
8232;SDS011;4157;48.074;9.952;2022-09-01T11:37:13;5.70;;;3.70;;
8232;SDS011;4157;48.074;9.952;2022-09-01T11:39:44;8.20;;;5.50;;
8232;SDS011;4157;48.074;9.952;2022-09-01T11:42:16;7.95;;;4.45;;
8232;SDS011;4157;48.074;9.952;2022-09-01T11:44:46;6.05;;;3.95;;
8232;SDS011;4157;48.074;9.952;2022-09-01T11:47:16;6.38;;;4.10;;
8232;SDS011;4157;48.074;9.952;2022-09-01T11:49:49;7.00;;;3.88;;
8232;SDS011;4157;48.074;9.952;2022-09-01T11:52:20;5.67;;;3.87;;
8232;SDS011;4157;48.074;9.952;2022-09-01T11:54:48;5.40;;;3.40;;
8232;SDS011;4157;48.074;9.952;2022-09-01T11:57:18;6.05;;;3.60;;
8232;SDS011;4157;48.074;9.952;2022-09-01T11:59:46;6.30;;;3.63;;
8232;SDS011;4157;48.074;9.952;2022-09-01T12:02:17;4.93;;;3.40;;
8232;SDS011;4157;48.074;9.952;2022-09-01T12:04:45;5.10;;;3.08;;
8232;SDS011;4157;48.074;9.952;2022-09-01T12:07:22;6.22;;;3.78;;
8232;SDS011;4157;48.074;9.952;2022-09-01T12:09:52;6.38;;;3.33;;
8232;SDS011;4157;48.074;9.952;2022-09-01T12:15:07;5.60;;;3.53;;
8232;SDS011;4157;48.074;9.952;2022-09-01T12:17:35;5.68;;;3.70;;
8232;SDS011;4157;48.074;9.952;2022-09-01T12:20:22;5.35;;;3.58;;
8232;SDS011;4157;48.074;9.952;2022-09-01T12:22:50;5.35;;;3.58;;
8232;SDS011;4157;48.074;9.952;2022-09-01T12:25:21;5.70;;;3.60;;
8232;SDS011;4157;48.074;9.952;2022-09-01T12:27:49;5.40;;;3.10;;
8232;SDS011;4157;48.074;9.952;2022-09-01T12:30:18;7.07;;;2.97;;
8232;SDS011;4157;48.074;9.952;2022-09-01T12:32:46;5.38;;;3.08;;
8232;SDS011;4157;48.074;9.952;2022-09-01T12:35:14;4.60;;;3.30;;
8232;SDS011;4157;48.074;9.952;2022-09-01T12:37:43;4.38;;;3.05;;
8232;SDS011;4157;48.074;9.952;2022-09-01T12:40:29;5.00;;;3.20;;
8232;SDS011;4157;48.074;9.952;2022-09-01T12:42:57;4.70;;;3.25;;
8232;SDS011;4157;48.074;9.952;2022-09-01T12:48:24;5.25;;;3.25;;
8232;SDS011;4157;48.074;9.952;2022-09-01T12:50:53;5.90;;;3.40;;
8232;SDS011;4157;48.074;9.952;2022-09-01T12:53:22;4.47;;;2.97;;
8232;SDS011;4157;48.074;9.952;2022-09-01T12:55:55;5.22;;;3.38;;
8232;SDS011;4157;48.074;9.952;2022-09-01T12:58:25;5.70;;;3.17;;
8232;SDS011;4157;48.074;9.952;2022-09-01T13:00:55;4.55;;;2.85;;
8232;SDS011;4157;48.074;9.952;2022-09-01T13:03:23;5.03;;;2.83;;
8232;SDS011;4157;48.074;9.952;2022-09-01T13:05:52;5.18;;;2.90;;
8232;SDS011;4157;48.074;9.952;2022-09-01T13:08:21;4.32;;;2.90;;
8232;SDS011;4157;48.074;9.952;2022-09-01T13:10:51;4.78;;;3.15;;
8232;SDS011;4157;48.074;9.952;2022-09-01T13:13:22;4.80;;;3.00;;
8232;SDS011;4157;48.074;9.952;2022-09-01T13:15:50;6.15;;;2.80;;
8232;SDS011;4157;48.074;9.952;2022-09-01T13:18:18;5.28;;;3.20;;
8232;SDS011;4157;48.074;9.952;2022-09-01T13:20:46;7.10;;;2.70;;
8232;SDS011;4157;48.074;9.952;2022-09-01T13:23:14;8.05;;;3.53;;
8232;SDS011;4157;48.074;9.952;2022-09-01T13:25:42;5.45;;;2.67;;
8232;SDS011;4157;48.074;9.952;2022-09-01T13:28:11;4.20;;;2.50;;
8232;SDS011;4157;48.074;9.952;2022-09-01T13:30:40;6.63;;;2.70;;
8232;SDS011;4157;48.074;9.952;2022-09-01T13:33:08;4.32;;;2.63;;
8232;SDS011;4157;48.074;9.952;2022-09-01T13:35:37;5.07;;;2.30;;
8232;SDS011;4157;48.074;9.952;2022-09-01T13:38:05;5.18;;;2.42;;
8232;SDS011;4157;48.074;9.952;2022-09-01T13:40:33;5.35;;;2.60;;
8232;SDS011;4157;48.074;9.952;2022-09-01T13:43:00;4.22;;;2.50;;
8232;SDS011;4157;48.074;9.952;2022-09-01T13:45:29;5.47;;;2.20;;
8232;SDS011;4157;48.074;9.952;2022-09-01T13:47:58;7.15;;;2.65;;
8232;SDS011;4157;48.074;9.952;2022-09-01T13:50:26;4.15;;;2.30;;
8232;SDS011;4157;48.074;9.952;2022-09-01T13:52:54;5.13;;;3.17;;
8232;SDS011;4157;48.074;9.952;2022-09-01T13:55:24;5.15;;;2.47;;
8232;SDS011;4157;48.074;9.952;2022-09-01T13:57:51;3.65;;;2.45;;
8232;SDS011;4157;48.074;9.952;2022-09-01T14:00:21;5.43;;;2.30;;
8232;SDS011;4157;48.074;9.952;2022-09-01T14:02:51;4.60;;;2.40;;
8232;SDS011;4157;48.074;9.952;2022-09-01T14:05:22;4.00;;;2.50;;
8232;SDS011;4157;48.074;9.952;2022-09-01T14:07:50;4.07;;;2.47;;
8232;SDS011;4157;48.074;9.952;2022-09-01T14:10:18;5.68;;;2.97;;
8232;SDS011;4157;48.074;9.952;2022-09-01T14:12:46;3.67;;;2.40;;
8232;SDS011;4157;48.074;9.952;2022-09-01T14:15:15;4.00;;;2.22;;
8232;SDS011;4157;48.074;9.952;2022-09-01T14:17:43;4.75;;;2.33;;
8232;SDS011;4157;48.074;9.952;2022-09-01T14:20:12;3.72;;;2.33;;
8232;SDS011;4157;48.074;9.952;2022-09-01T14:22:41;3.90;;;2.00;;
8232;SDS011;4157;48.074;9.952;2022-09-01T14:25:08;3.45;;;2.20;;
8232;SDS011;4157;48.074;9.952;2022-09-01T14:27:36;3.28;;;1.92;;
8232;SDS011;4157;48.074;9.952;2022-09-01T14:30:05;6.18;;;2.13;;
8232;SDS011;4157;48.074;9.952;2022-09-01T14:32:33;4.30;;;2.10;;
8232;SDS011;4157;48.074;9.952;2022-09-01T14:35:01;4.78;;;2.03;;
8232;SDS011;4157;48.074;9.952;2022-09-01T14:37:29;3.33;;;1.98;;
8232;SDS011;4157;48.074;9.952;2022-09-01T14:39:58;4.10;;;2.30;;
8232;SDS011;4157;48.074;9.952;2022-09-01T14:42:26;3.50;;;1.85;;
8232;SDS011;4157;48.074;9.952;2022-09-01T14:44:54;3.92;;;1.98;;
8232;SDS011;4157;48.074;9.952;2022-09-01T14:47:22;3.63;;;1.83;;
8232;SDS011;4157;48.074;9.952;2022-09-01T14:49:50;5.43;;;1.77;;
8232;SDS011;4157;48.074;9.952;2022-09-01T14:52:18;4.35;;;2.00;;
8232;SDS011;4157;48.074;9.952;2022-09-01T14:54:46;4.57;;;2.33;;
8232;SDS011;4157;48.074;9.952;2022-09-01T14:57:15;3.22;;;1.98;;
8232;SDS011;4157;48.074;9.952;2022-09-01T14:59:43;4.75;;;1.95;;
8232;SDS011;4157;48.074;9.952;2022-09-01T15:02:11;3.95;;;2.17;;
8232;SDS011;4157;48.074;9.952;2022-09-01T15:04:38;4.07;;;1.95;;
8232;SDS011;4157;48.074;9.952;2022-09-01T15:07:07;5.85;;;2.13;;
8232;SDS011;4157;48.074;9.952;2022-09-01T15:09:34;6.30;;;2.47;;
8232;SDS011;4157;48.074;9.952;2022-09-01T15:12:03;4.10;;;2.30;;
8232;SDS011;4157;48.074;9.952;2022-09-01T15:14:32;4.20;;;2.30;;
8232;SDS011;4157;48.074;9.952;2022-09-01T15:16:59;3.65;;;2.42;;
8232;SDS011;4157;48.074;9.952;2022-09-01T15:19:27;6.82;;;2.53;;
8232;SDS011;4157;48.074;9.952;2022-09-01T15:21:55;5.47;;;2.35;;
8232;SDS011;4157;48.074;9.952;2022-09-01T15:24:22;4.85;;;2.40;;
8232;SDS011;4157;48.074;9.952;2022-09-01T15:26:50;4.72;;;2.63;;
8232;SDS011;4157;48.074;9.952;2022-09-01T15:29:17;5.80;;;2.80;;
8232;SDS011;4157;48.074;9.952;2022-09-01T15:31:46;4.18;;;2.30;;
8232;SDS011;4157;48.074;9.952;2022-09-01T15:34:14;4.80;;;2.40;;
8232;SDS011;4157;48.074;9.952;2022-09-01T15:36:43;3.58;;;2.10;;
8232;SDS011;4157;48.074;9.952;2022-09-01T15:39:11;3.60;;;2.03;;
8232;SDS011;4157;48.074;9.952;2022-09-01T15:41:39;4.82;;;2.10;;
8232;SDS011;4157;48.074;9.952;2022-09-01T15:44:07;4.40;;;2.50;;
8232;SDS011;4157;48.074;9.952;2022-09-01T15:46:35;4.97;;;2.00;;
8232;SDS011;4157;48.074;9.952;2022-09-01T15:49:07;5.65;;;2.10;;
8232;SDS011;4157;48.074;9.952;2022-09-01T15:51:35;3.42;;;1.98;;